Time;durP1;ratioP1;P1;durP2;ratioP2;P2;SDS_P1;SDS_P2;PMS_P1;PMS_P2;Temp;Humidity;BMP_temperature;BMP_pressure;BME280_temperature;BME280_humidity;BME280_pressure;Samples;Min_cycle;Max_cycle;Signal;HPM_P1;HPM_P2
2021/12/18 00:01:57;;;;;;;11.18;7.80;;;;;;;0.83;100.00;100659.34;1608042;88;21102;-79
2021/12/18 00:04:24;;;;;;;10.80;7.60;;;;;;;0.84;100.00;100666.97;1613284;89;21173;-79
2021/12/18 00:06:51;;;;;;;10.35;7.03;;;;;;;0.83;100.00;100660.20;1613267;88;21101;-79
2021/12/18 00:09:18;;;;;;;11.20;7.60;;;;;;;0.84;100.00;100659.74;1582338;89;21090;-78
2021/12/18 00:11:45;;;;;;;10.53;6.20;;;;;;;0.84;100.00;100664.41;1614865;88;21156;-79
2021/12/18 00:14:12;;;;;;;10.72;7.40;;;;;;;0.85;100.00;100660.96;1625706;88;21041;-79
2021/12/18 00:16:39;;;;;;;12.00;6.45;;;;;;;0.86;100.00;100666.95;1624339;88;21137;-79
2021/12/18 00:19:06;;;;;;;9.83;7.00;;;;;;;0.85;100.00;100667.37;1625686;88;21403;-80
2021/12/18 00:21:36;;;;;;;10.95;7.00;;;;;;;0.88;100.00;100666.00;1614260;88;21480;-79
2021/12/18 00:24:06;;;;;;;10.60;6.75;;;;;;;0.94;100.00;100665.78;1611787;89;21126;-79
2021/12/18 00:26:35;;;;;;;10.08;6.40;;;;;;;1.01;100.00;100665.56;1598272;89;21111;-82
2021/12/18 00:29:02;;;;;;;10.43;6.97;;;;;;;1.07;100.00;100667.94;1613177;89;21177;-79
2021/12/18 00:31:30;;;;;;;10.18;7.00;;;;;;;1.09;100.00;100666.14;1613145;89;21349;-79
2021/12/18 00:33:58;;;;;;;9.93;6.97;;;;;;;1.11;100.00;100664.36;1603865;88;21142;-80
2021/12/18 00:36:24;;;;;;;10.95;7.22;;;;;;;1.15;100.00;100670.22;1604026;89;21584;-78
2021/12/18 00:38:51;;;;;;;10.25;6.83;;;;;;;1.14;100.00;100675.81;1613435;89;21556;-80
2021/12/18 00:44:02;;;;;;;10.48;7.28;;;;;;;1.04;100.00;100680.86;1603897;89;21022;-81
2021/12/18 00:46:37;;;;;;;14.70;8.05;;;;;;;0.98;100.00;100670.36;1604030;89;21110;-79
2021/12/18 00:49:06;;;;;;;12.90;7.72;;;;;;;0.94;100.00;100685.02;1598074;89;21120;-80
2021/12/18 00:51:35;;;;;;;15.53;8.18;;;;;;;0.87;100.00;100682.27;1604042;88;21081;-78
2021/12/18 00:54:03;;;;;;;12.13;6.92;;;;;;;0.84;100.00;100673.38;1604092;89;22285;-79
2021/12/18 00:56:31;;;;;;;13.03;7.47;;;;;;;0.81;100.00;100673.51;1613249;89;21596;-80
2021/12/18 00:58:58;;;;;;;14.58;7.37;;;;;;;0.78;100.00;100673.59;1613412;88;21035;-80
2021/12/18 01:01:28;;;;;;;13.62;7.45;;;;;;;0.75;100.00;100673.72;1613369;88;21039;-80
2021/12/18 01:03:56;;;;;;;10.72;6.70;;;;;;;0.73;100.00;100677.59;1613164;88;21121;-78
2021/12/18 01:06:27;;;;;;;12.70;7.35;;;;;;;0.72;100.00;100677.20;1625717;88;21167;-79
2021/12/18 01:08:57;;;;;;;12.88;6.75;;;;;;;0.70;100.00;100672.59;1609229;88;21088;-79
2021/12/18 01:11:45;;;;;;;12.05;7.35;;;;;;;0.70;100.00;100676.86;1625581;88;21143;-79
2021/12/18 01:14:39;;;;;;;13.32;7.40;;;;;;;0.70;100.00;100688.39;1624804;88;21133;-78
2021/12/18 01:22:42;;;;;;;14.28;7.83;;;;;;;0.67;100.00;100676.52;1604830;88;21081;-78
2021/12/18 01:24:53;;;;;;;14.75;8.78;;;;;;;0.62;100.00;100682.25;1625581;88;21106;-79
2021/12/18 01:27:21;;;;;;;15.25;9.55;;;;;;;0.59;100.00;100679.78;1625509;88;21634;-80
2021/12/18 01:29:48;;;;;;;19.98;10.65;;;;;;;0.59;100.00;100688.75;1603629;89;21089;-80
2021/12/18 01:32:16;;;;;;;16.17;9.38;;;;;;;0.57;100.00;100690.09;1612662;88;21698;-79
2021/12/18 01:34:43;;;;;;;18.10;10.10;;;;;;;0.56;100.00;100694.81;1613130;88;22063;-79
2021/12/18 01:37:10;;;;;;;14.73;9.83;;;;;;;0.54;100.00;100704.27;1607629;88;21047;-79
2021/12/18 01:39:39;;;;;;;18.42;11.10;;;;;;;0.53;100.00;100698.75;1607948;88;21094;-79
2021/12/18 01:53:12;;;;;;;18.42;11.85;;;;;;;0.48;100.00;100707.03;1555758;92;21772;-79
2021/12/18 01:55:43;;;;;;;17.27;11.03;;;;;;;0.48;100.00;100705.75;1555663;92;21136;-78
2021/12/18 01:58:12;;;;;;;19.50;10.75;;;;;;;0.46;100.00;100705.81;1558371;89;21965;-78
2021/12/18 02:00:43;;;;;;;18.98;11.57;;;;;;;0.46;100.00;100714.78;1621952;88;21620;-79
2021/12/18 02:03:10;;;;;;;17.10;11.15;;;;;;;0.48;100.00;100712.61;1619310;88;21082;-82
2021/12/18 02:05:38;;;;;;;17.30;11.15;;;;;;;0.47;100.00;100714.32;1621901;87;21583;-79
2021/12/18 02:08:07;;;;;;;17.57;10.85;;;;;;;0.49;100.00;100718.96;1622000;87;21051;-81
2021/12/18 02:10:46;;;;;;;18.75;11.28;;;;;;;0.49;100.00;100717.69;1601827;88;21077;-78
2021/12/18 02:21:28;;;;;;;22.40;12.90;;;;;;;0.45;100.00;100726.33;1606349;89;21110;-81
2021/12/18 02:23:54;;;;;;;;;;;;;;;0.45;100.00;100727.19;1606600;89;21862;-79
2021/12/18 02:26:23;;;;;;;19.82;11.25;;;;;;;0.47;100.00;100722.01;1606037;88;20157;-79
2021/12/18 02:28:57;;;;;;;18.40;11.22;;;;;;;0.46;100.00;100733.99;1573012;89;21121;-79
2021/12/18 02:31:23;;;;;;;16.87;10.63;;;;;;;0.43;100.00;100731.52;1604289;89;21046;-79
2021/12/18 02:33:50;;;;;;;16.25;11.03;;;;;;;0.43;100.00;100739.20;1606195;89;21035;-79
2021/12/18 02:36:25;;;;;;;18.27;10.88;;;;;;;0.43;100.00;100728.95;1606188;89;21161;-78
2021/12/18 02:43:52;;;;;;;18.42;11.22;;;;;;;0.44;100.00;100736.22;1606097;88;21035;-79
2021/12/18 02:46:20;;;;;;;20.37;10.63;;;;;;;0.41;100.00;100740.97;1606303;88;21802;-79
2021/12/18 02:48:56;;;;;;;16.48;11.10;;;;;;;0.40;100.00;100744.86;1606215;89;21179;-79
2021/12/18 02:51:22;;;;;;;17.52;9.18;;;;;;;0.40;100.00;100743.13;1594287;89;21043;-80
2021/12/18 02:53:53;;;;;;;17.20;11.40;;;;;;;0.39;100.00;100743.19;1606091;89;22644;-79
2021/12/18 02:56:24;;;;;;;17.12;10.98;;;;;;;0.37;100.00;100741.10;1597962;88;21074;-80
2021/12/18 02:59:06;;;;;;;20.77;11.90;;;;;;;0.37;100.00;100743.66;1570931;89;21101;-80
2021/12/18 03:01:38;;;;;;;20.12;11.73;;;;;;;0.38;100.00;100739.80;1604094;88;21126;-79
2021/12/18 03:04:21;;;;;;;16.87;11.13;;;;;;;0.41;100.00;100743.98;1592028;88;21114;-81
2021/12/18 03:06:47;;;;;;;17.57;10.35;;;;;;;0.43;100.00;100741.77;1603898;88;21067;-78
2021/12/18 03:27:00;;;;;;;17.75;10.30;;;;;;;0.33;100.00;100760.03;1601311;89;21073;-79
2021/12/18 03:29:29;;;;;;;16.87;10.90;;;;;;;0.30;100.00;100772.04;1600576;88;21077;-80
2021/12/18 03:31:57;;;;;;;18.95;10.55;;;;;;;0.31;100.00;100772.44;1600948;89;21145;-79
2021/12/18 03:34:23;;;;;;;18.42;10.88;;;;;;;0.32;100.00;100779.70;1601218;88;21042;-79
2021/12/18 03:36:52;;;;;;;17.85;10.95;;;;;;;0.31;100.00;100776.28;1607352;88;21081;-81
2021/12/18 03:39:19;;;;;;;17.05;10.20;;;;;;;0.32;100.00;100775.86;1656279;86;21117;-79
2021/12/18 03:41:46;;;;;;;16.48;10.03;;;;;;;0.34;100.00;100779.64;1656290;86;21121;-80
2021/12/18 03:44:13;;;;;;;21.10;10.18;;;;;;;0.35;100.00;100788.55;1655917;86;21110;-80
2021/12/18 03:46:40;;;;;;;18.42;10.40;;;;;;;0.36;100.00;100785.11;1656218;86;21086;-79
2021/12/18 03:49:07;;;;;;;18.45;11.28;;;;;;;0.38;100.00;100787.20;1636938;86;21551;-78
2021/12/18 03:51:34;;;;;;;15.63;9.30;;;;;;;0.38;100.00;100783.77;1656295;86;21481;-78
2021/12/18 03:54:02;;;;;;;16.77;9.95;;;;;;;0.37;100.00;100788.08;1655735;86;21180;-79
2021/12/18 03:56:30;;;;;;;19.57;10.93;;;;;;;0.37;100.00;100788.08;1656047;86;21034;-80
2021/12/18 03:58:58;;;;;;;19.65;11.40;;;;;;;0.37;100.00;100788.50;1656003;86;21111;-79
2021/12/18 04:01:26;;;;;;;15.98;10.28;;;;;;;0.36;100.00;100792.80;1656239;86;21003;-80
2021/12/18 04:03:54;;;;;;;19.62;10.13;;;;;;;0.37;100.00;100800.88;1656278;86;22025;-79
2021/12/18 04:06:24;;;;;;;19.05;9.93;;;;;;;0.37;100.00;100801.31;1637231;86;21090;-82
2021/12/18 04:08:54;;;;;;;15.93;9.15;;;;;;;0.35;100.00;100806.95;1655849;86;21132;-80
2021/12/18 04:11:23;;;;;;;16.95;10.30;;;;;;;0.36;100.00;100802.22;1656437;86;21085;-81
2021/12/18 04:13:50;;;;;;;17.20;9.18;;;;;;;0.35;100.00;100813.35;1655894;86;21105;-79
2021/12/18 04:16:18;;;;;;;17.17;9.68;;;;;;;0.35;100.00;100812.06;1656227;86;21136;-80
2021/12/18 04:18:45;;;;;;;14.10;9.85;;;;;;;0.34;100.00;100810.39;1655959;86;21785;-80
2021/12/18 04:21:12;;;;;;;13.48;7.95;;;;;;;0.33;100.00;100821.06;1656424;85;21589;-79
2021/12/18 04:23:39;;;;;;;15.72;8.90;;;;;;;0.33;100.00;100807.42;1656068;86;21081;-80
2021/12/18 04:26:08;;;;;;;13.32;8.55;;;;;;;0.34;100.00;100811.66;1656052;86;21085;-79
2021/12/18 04:28:35;;;;;;;16.07;9.15;;;;;;;0.36;100.00;100813.75;1656282;86;21061;-79
2021/12/18 04:31:03;;;;;;;15.03;8.13;;;;;;;0.35;100.00;100808.23;1656062;86;39371;-79
2021/12/18 04:33:31;;;;;;;13.98;8.63;;;;;;;0.35;100.00;100813.35;1656118;86;21121;-80
2021/12/18 04:35:58;;;;;;;12.15;7.50;;;;;;;0.31;100.00;100817.27;1655910;86;21161;-80
2021/12/18 04:38:27;;;;;;;14.78;7.72;;;;;;;0.29;100.00;100818.20;1635207;86;21105;-80
2021/12/18 04:40:54;;;;;;;11.15;7.67;;;;;;;0.27;100.00;100824.66;1652063;86;21083;-80
2021/12/18 04:43:21;;;;;;;13.55;7.05;;;;;;;0.25;100.00;100831.54;1634347;86;21076;-80
2021/12/18 04:45:50;;;;;;;11.78;6.72;;;;;;;0.23;100.00;100837.14;1634481;86;21610;-80
2021/12/18 04:48:17;;;;;;;16.77;8.28;;;;;;;0.24;100.00;100836.27;1652039;86;21086;-79
2021/12/18 04:50:44;;;;;;;12.45;7.97;;;;;;;0.25;100.00;100837.09;1652034;86;21071;-81
2021/12/18 04:53:12;;;;;;;13.83;7.50;;;;;;;0.22;100.00;100838.02;1654556;86;21077;-80
2021/12/18 04:55:39;;;;;;;13.68;7.67;;;;;;;0.22;100.00;100847.44;1623523;88;21130;-80
2021/12/18 04:58:07;;;;;;;11.85;7.28;;;;;;;0.20;100.00;100843.62;1632996;86;21625;-79
2021/12/18 05:00:39;;;;;;;12.40;7.80;;;;;;;0.20;100.00;100848.74;1607910;88;21153;-83
2021/12/18 05:03:13;;;;;;;11.63;7.12;;;;;;;0.19;100.00;100844.53;1612917;89;21073;-80
2021/12/18 05:05:42;;;;;;;15.65;7.97;;;;;;;0.24;100.00;100846.51;1602382;89;21093;-82
2021/12/18 05:08:09;;;;;;;15.28;7.10;;;;;;;0.27;100.00;100854.55;1625397;88;21144;-80
2021/12/18 05:10:36;;;;;;;10.25;6.03;;;;;;;0.31;100.00;100854.88;1607077;88;21573;-79
2021/12/18 05:13:05;;;;;;;9.65;6.25;;;;;;;0.31;100.00;100856.98;1624251;88;21050;-80
2021/12/18 05:15:32;;;;;;;9.83;6.40;;;;;;;0.26;100.00;100856.28;1625322;88;21086;-79
2021/12/18 05:17:59;;;;;;;12.37;5.60;;;;;;;0.24;100.00;100857.21;1625095;88;21095;-81
2021/12/18 05:20:26;;;;;;;8.93;5.60;;;;;;;0.21;100.00;100862.41;1624703;87;21151;-80
2021/12/18 05:22:53;;;;;;;7.37;5.40;;;;;;;0.21;100.00;100868.36;1625277;88;21097;-83
2021/12/18 05:25:20;;;;;;;9.60;5.90;;;;;;;0.22;100.00;100867.94;1612695;89;21042;-79
2021/12/18 05:27:47;;;;;;;10.15;5.28;;;;;;;0.22;100.00;100871.32;1597796;89;21672;-82
2021/12/18 05:30:14;;;;;;;8.83;5.17;;;;;;;0.27;100.00;100876.31;1598155;89;21082;-82
2021/12/18 05:32:41;;;;;;;7.20;4.85;;;;;;;0.28;100.00;100883.95;1613008;87;21198;-81
2021/12/18 05:35:09;;;;;;;7.47;5.25;;;;;;;0.25;100.00;100886.61;1624981;88;21580;-81
2021/12/18 05:38:04;;;;;;;12.65;5.87;;;;;;;0.25;100.00;100887.04;1605073;87;21051;-80
2021/12/18 05:40:25;;;;;;;14.13;5.67;;;;;;;0.26;100.00;100884.45;1606888;89;21129;-80
2021/12/18 05:42:53;;;;;;;7.97;5.80;;;;;;;0.28;100.00;100890.81;1594097;90;21098;-82
2021/12/18 05:45:20;;;;;;;11.80;6.00;;;;;;;0.30;100.00;100892.89;1597152;89;21760;-81
2021/12/18 05:47:48;;;;;;;12.68;6.15;;;;;;;0.31;100.00;100893.30;1592617;89;21061;-81
2021/12/18 05:50:17;;;;;;;9.98;6.15;;;;;;;0.31;100.00;100898.42;1587859;89;21603;-80
2021/12/18 05:52:48;;;;;;;8.38;5.17;;;;;;;0.30;100.00;100900.58;1620465;88;21073;-80
2021/12/18 05:55:20;;;;;;;9.35;5.10;;;;;;;0.29;100.00;100898.44;1607997;88;21542;-81
2021/12/18 05:57:46;;;;;;;11.53;5.80;;;;;;;0.29;100.00;100907.41;1624073;86;21155;-81
2021/12/18 06:00:14;;;;;;;9.00;5.53;;;;;;;0.29;100.00;100914.27;1593249;89;21087;-81
2021/12/18 06:02:42;;;;;;;8.60;5.85;;;;;;;0.28;100.00;100918.53;1620164;87;21116;-82
2021/12/18 06:05:10;;;;;;;11.45;6.33;;;;;;;0.30;100.00;100919.80;1607731;89;21153;-81
2021/12/18 06:07:54;;;;;;;11.18;7.12;;;;;;;0.30;100.00;100917.23;1608035;89;21105;-82
2021/12/18 06:10:13;;;;;;;9.05;6.30;;;;;;;0.31;100.00;100922.30;1606635;89;21168;-80
2021/12/18 06:12:39;;;;;;;11.95;6.85;;;;;;;0.33;100.00;100926.55;1575379;90;21166;-81
2021/12/18 06:15:07;;;;;;;12.25;7.08;;;;;;;0.32;100.00;100930.84;1608306;89;21039;-81
2021/12/18 06:17:36;;;;;;;9.05;5.72;;;;;;;0.30;100.00;100926.20;1607925;88;21059;-81
2021/12/18 06:20:03;;;;;;;10.60;7.28;;;;;;;0.30;100.00;100935.98;1617499;88;21771;-81
2021/12/18 06:22:30;;;;;;;12.70;7.35;;;;;;;0.30;100.00;100942.39;1620422;88;21947;-82
2021/12/18 06:24:57;;;;;;;9.90;7.05;;;;;;;0.30;100.00;100951.81;1619155;88;21619;-80
2021/12/18 06:27:24;;;;;;;11.80;7.40;;;;;;;0.29;100.00;100952.23;1620805;88;21517;-80
2021/12/18 06:29:51;;;;;;;15.63;7.78;;;;;;;0.31;100.00;100957.34;1619094;88;21095;-83
2021/12/18 06:32:19;;;;;;;13.22;7.70;;;;;;;0.31;100.00;100960.73;1620462;88;21051;-84
2021/12/18 06:34:46;;;;;;;11.55;7.50;;;;;;;0.31;100.00;100960.73;1618996;88;21393;-85
2021/12/18 06:37:13;;;;;;;11.80;7.78;;;;;;;0.30;100.00;100963.34;1621308;87;21068;-84
2021/12/18 06:39:40;;;;;;;12.53;7.53;;;;;;;0.29;100.00;100955.25;1619108;88;21102;-84
2021/12/18 06:42:07;;;;;;;16.77;7.83;;;;;;;0.28;100.00;100962.53;1622610;88;21128;-84
2021/12/18 06:44:35;;;;;;;13.78;9.15;;;;;;;0.28;100.00;100963.81;1602501;89;21074;-82
2021/12/18 06:47:02;;;;;;;17.80;9.70;;;;;;;0.27;100.00;100962.13;1602477;89;21796;-82
2021/12/18 06:49:29;;;;;;;16.70;8.80;;;;;;;0.28;100.00;100974.06;1602450;89;21037;-81
2021/12/18 06:51:57;;;;;;;16.25;8.43;;;;;;;0.29;100.00;100972.73;1603148;87;21069;-81
2021/12/18 06:54:24;;;;;;;15.83;8.40;;;;;;;0.31;100.00;100976.10;1602820;88;21530;-83
2021/12/18 06:56:51;;;;;;;17.12;9.90;;;;;;;0.31;100.00;100979.95;1586214;88;21093;-80
2021/12/18 06:59:19;;;;;;;16.70;9.05;;;;;;;0.30;100.00;100979.55;1580312;89;21639;-81
2021/12/18 07:01:46;;;;;;;19.62;9.58;;;;;;;0.30;100.00;100983.84;1589861;89;21055;-81
2021/12/18 07:04:13;;;;;;;16.52;8.68;;;;;;;0.33;100.00;100988.03;1601349;89;21176;-81
2021/12/18 07:06:40;;;;;;;19.32;9.70;;;;;;;0.33;100.00;100991.88;1601131;88;21624;-80
2021/12/18 07:09:07;;;;;;;16.82;9.25;;;;;;;0.30;100.00;100984.66;1601728;88;21561;-80
2021/12/18 07:11:34;;;;;;;15.88;9.65;;;;;;;0.31;100.00;100987.62;1613060;88;21093;-80
2021/12/18 07:14:01;;;;;;;15.80;10.20;;;;;;;0.30;100.00;100990.24;1621990;88;21122;-81
2021/12/18 07:16:28;;;;;;;16.65;10.95;;;;;;;0.30;100.00;100986.40;1622400;88;21066;-80
2021/12/18 07:18:55;;;;;;;17.50;10.23;;;;;;;0.31;100.00;100986.80;1612480;88;21034;-80
2021/12/18 07:21:23;;;;;;;15.43;9.40;;;;;;;0.33;100.00;100990.59;1605969;88;21081;-81
2021/12/18 07:23:50;;;;;;;14.63;9.23;;;;;;;0.34;100.00;100992.28;1593089;88;21798;-80
2021/12/18 07:26:17;;;;;;;14.70;8.98;;;;;;;0.35;100.00;100988.39;1592275;89;21070;-81
2021/12/18 07:28:44;;;;;;;13.50;7.10;;;;;;;0.36;100.00;101000.78;1590836;87;21559;-81
2021/12/18 07:31:11;;;;;;;12.80;8.48;;;;;;;0.36;100.00;101005.90;1617266;87;21072;-80
2021/12/18 07:33:41;;;;;;;14.10;9.08;;;;;;;0.36;100.00;101002.06;1620798;87;21664;-80
2021/12/18 07:36:08;;;;;;;12.37;7.75;;;;;;;0.36;100.00;101009.74;1617758;88;21171;-81
2021/12/18 07:38:36;;;;;;;19.50;8.90;;;;;;;0.37;100.00;101006.27;1593078;89;21062;-80
2021/12/18 07:41:03;;;;;;;12.73;8.28;;;;;;;0.35;100.00;101014.01;1606119;88;21565;-81
2021/12/18 07:43:31;;;;;;;16.42;8.73;;;;;;;0.37;100.00;101021.64;1630529;87;21062;-80
2021/12/18 07:45:57;;;;;;;14.30;7.90;;;;;;;0.37;100.00;101012.67;1580872;88;21081;-81
2021/12/18 07:48:24;;;;;;;13.90;8.30;;;;;;;0.39;100.00;101023.73;1609851;87;21142;-80
2021/12/18 07:50:51;;;;;;;13.15;7.72;;;;;;;0.38;100.00;101024.61;1593184;88;21137;-82
2021/12/18 07:53:21;;;;;;;13.30;7.83;;;;;;;0.41;100.00;101025.83;1618690;87;21918;-80
2021/12/18 07:55:48;;;;;;;12.98;8.03;;;;;;;0.42;100.00;101028.34;1606330;88;21043;-80
2021/12/18 07:58:15;;;;;;;12.68;8.53;;;;;;;0.45;100.00;101026.13;1606260;89;21083;-81
2021/12/18 08:00:43;;;;;;;12.58;7.95;;;;;;;0.50;100.00;101031.14;1606528;88;21806;-79
2021/12/18 08:03:11;;;;;;;15.43;9.10;;;;;;;0.51;100.00;101025.99;1606516;87;21087;-80
2021/12/18 08:05:39;;;;;;;13.25;8.80;;;;;;;0.56;100.00;101025.42;1645508;85;21098;-80
2021/12/18 08:08:06;;;;;;;12.20;7.67;;;;;;;0.60;100.00;101028.28;1594771;88;21100;-80
2021/12/18 08:10:34;;;;;;;12.63;8.03;;;;;;;0.61;100.00;101029.14;1601168;89;21564;-80
2021/12/18 08:13:01;;;;;;;15.45;8.45;;;;;;;0.62;100.00;101026.52;1600804;89;21189;-80
2021/12/18 08:15:28;;;;;;;12.93;7.78;;;;;;;0.65;100.00;101032.00;1617482;87;21070;-80
2021/12/18 08:17:57;;;;;;;12.15;7.35;;;;;;;0.65;100.00;101028.62;1632474;87;21072;-80
2021/12/18 08:20:26;;;;;;;14.43;7.55;;;;;;;0.66;100.00;101027.73;1615271;87;22295;-82
2021/12/18 08:22:53;;;;;;;13.60;8.60;;;;;;;0.65;100.00;101029.89;1641452;85;21048;-81
2021/12/18 08:25:21;;;;;;;10.58;7.42;;;;;;;0.67;100.00;101023.84;1611350;87;21151;-81
2021/12/18 08:27:48;;;;;;;11.68;7.62;;;;;;;0.68;100.00;101016.55;1622010;88;21081;-80
2021/12/18 08:30:15;;;;;;;11.43;7.60;;;;;;;0.69;100.00;101022.51;1621872;88;21097;-82
2021/12/18 08:32:43;;;;;;;11.83;7.75;;;;;;;0.70;100.00;101022.91;1606451;89;21118;-80
2021/12/18 08:35:10;;;;;;;13.85;8.20;;;;;;;0.70;100.00;101022.48;1606252;89;21069;-84
2021/12/18 08:37:37;;;;;;;11.75;6.65;;;;;;;0.71;100.00;101020.33;1606759;88;21185;-85
2021/12/18 08:40:06;;;;;;;11.38;7.75;;;;;;;0.74;100.00;101018.12;1657095;86;21014;-82
2021/12/18 08:42:34;;;;;;;10.03;6.62;;;;;;;0.76;100.00;101015.08;1615246;88;22084;-80
2021/12/18 08:45:01;;;;;;;12.50;7.67;;;;;;;0.78;100.00;101013.28;1652027;86;21140;-81
2021/12/18 08:47:29;;;;;;;9.60;6.75;;;;;;;0.79;100.00;101013.69;1611557;89;21574;-81
2021/12/18 08:49:56;;;;;;;9.65;5.90;;;;;;;0.79;100.00;101017.53;1651906;86;21165;-83
2021/12/18 08:52:23;;;;;;;10.18;6.62;;;;;;;0.80;100.00;101012.81;1602499;89;21329;-81
2021/12/18 08:54:51;;;;;;;11.20;6.78;;;;;;;0.82;100.00;101013.62;1652321;86;21087;-81
2021/12/18 08:57:18;;;;;;;11.20;6.47;;;;;;;0.83;100.00;101011.45;1611966;89;21062;-80
2021/12/18 08:59:45;;;;;;;11.22;6.25;;;;;;;0.84;100.00;101006.70;1652251;86;21062;-80
2021/12/18 09:02:14;;;;;;;9.65;6.30;;;;;;;0.87;100.00;101011.75;1612105;88;21865;-80
2021/12/18 09:04:41;;;;;;;12.20;6.83;;;;;;;0.89;100.00;101015.55;1652297;86;21079;-81
2021/12/18 09:07:09;;;;;;;10.43;7.12;;;;;;;0.89;100.00;101016.41;1612195;89;21038;-80
2021/12/18 09:09:37;;;;;;;11.43;7.40;;;;;;;0.87;100.00;101023.29;1652342;86;21043;-81
2021/12/18 09:12:05;;;;;;;13.00;6.72;;;;;;;0.86;100.00;101015.20;1602660;89;21058;-80
2021/12/18 09:14:32;;;;;;;12.15;7.50;;;;;;;0.86;100.00;101015.66;1652579;86;21801;-80
2021/12/18 09:17:00;;;;;;;11.70;6.83;;;;;;;0.86;100.00;101020.78;1611962;89;21070;-80
2021/12/18 09:19:27;;;;;;;11.35;7.50;;;;;;;0.86;100.00;101018.22;1652482;86;21078;-79
2021/12/18 09:21:55;;;;;;;11.22;7.20;;;;;;;0.87;100.00;101019.90;1612009;89;21041;-80
2021/12/18 09:24:22;;;;;;;12.55;7.62;;;;;;;0.88;100.00;101019.02;1651418;86;20991;-80
2021/12/18 09:26:51;;;;;;;11.28;7.10;;;;;;;0.87;100.00;101026.31;1612004;88;21199;-80
2021/12/18 09:29:19;;;;;;;11.80;7.65;;;;;;;0.88;100.00;101022.41;1635224;86;21448;-82
2021/12/18 09:31:46;;;;;;;13.18;8.15;;;;;;;0.89;100.00;101024.52;1612163;89;21054;-80
2021/12/18 09:34:13;;;;;;;10.63;7.50;;;;;;;0.88;100.00;101028.82;1652363;86;21047;-81
2021/12/18 09:36:40;;;;;;;12.50;6.83;;;;;;;0.90;100.00;101030.05;1612288;89;21058;-80
2021/12/18 09:39:08;;;;;;;13.58;6.20;;;;;;;0.89;100.00;101029.65;1631188;87;20964;-81
2021/12/18 09:41:37;;;;;;;10.25;6.42;;;;;;;0.88;100.00;101022.86;1604809;89;21027;-80
2021/12/18 09:44:04;;;;;;;10.82;7.10;;;;;;;0.90;100.00;101032.62;1600222;89;21062;-80
2021/12/18 09:46:32;;;;;;;9.88;6.72;;;;;;;0.90;100.00;101029.63;1600555;89;21045;-80
2021/12/18 09:49:02;;;;;;;10.80;6.90;;;;;;;0.89;100.00;101027.94;1600305;89;21174;-81
2021/12/18 09:51:29;;;;;;;10.53;5.75;;;;;;;0.89;100.00;101022.81;1600516;89;21135;-84
2021/12/18 09:53:57;;;;;;;12.07;6.35;;;;;;;0.89;100.00;101027.09;1600073;89;21089;-83
2021/12/18 09:56:25;;;;;;;8.95;6.35;;;;;;;0.89;100.00;101026.66;1600047;89;21110;-80
2021/12/18 09:58:53;;;;;;;8.63;5.45;;;;;;;0.90;100.00;101014.24;1600147;89;21057;-80
2021/12/18 10:01:20;;;;;;;7.55;5.50;;;;;;;0.92;100.00;101016.75;1600329;89;21085;-80
2021/12/18 10:03:54;;;;;;;7.55;5.33;;;;;;;0.93;100.00;101005.61;1600100;89;21134;-80
2021/12/18 10:06:43;;;;;;;9.50;5.70;;;;;;;0.92;100.00;101010.34;1597718;89;21496;-84
2021/12/18 10:09:22;;;;;;;9.65;5.12;;;;;;;0.89;100.00;101026.66;1578535;89;21691;-83
2021/12/18 10:11:58;;;;;;;7.45;5.20;;;;;;;0.86;100.00;101011.34;1600447;89;21707;-86
2021/12/18 10:14:48;;;;;;;7.62;5.28;;;;;;;0.86;100.00;101021.61;1600200;89;21050;-81
2021/12/18 10:17:31;;;;;;;10.48;5.08;;;;;;;0.86;100.00;101016.94;1593231;87;22256;-81
2021/12/18 10:20:21;;;;;;;9.00;5.33;;;;;;;0.83;100.00;101019.15;1602962;89;21527;-80
2021/12/18 10:22:56;;;;;;;8.18;5.37;;;;;;;0.82;100.00;101016.61;1604185;89;21002;-81
2021/12/18 10:25:34;;;;;;;5.12;3.70;;;;;;;0.80;100.00;101017.11;1600800;89;21101;-81
2021/12/18 10:28:21;;;;;;;7.37;4.80;;;;;;;0.74;100.00;101026.63;1600277;89;21762;-81
2021/12/18 10:30:52;;;;;;;6.45;4.75;;;;;;;0.72;100.00;101028.39;1600628;89;21185;-82
2021/12/18 10:33:22;;;;;;;6.95;4.42;;;;;;;0.69;100.00;101024.64;1603320;89;21027;-82
2021/12/18 10:35:52;;;;;;;8.38;4.30;;;;;;;0.68;100.00;101017.84;1600690;89;21635;-81
2021/12/18 10:38:52;;;;;;;6.80;5.08;;;;;;;0.71;100.00;101022.03;1604891;88;21121;-81
2021/12/18 10:41:25;;;;;;;6.50;4.55;;;;;;;0.70;100.00;101018.64;1613087;88;21581;-82
2021/12/18 10:43:59;;;;;;;6.78;4.70;;;;;;;0.69;100.00;101023.37;1653974;86;21119;-81
2021/12/18 10:46:28;;;;;;;7.17;4.75;;;;;;;0.71;100.00;101015.20;1615770;88;21109;-81
2021/12/18 10:49:02;;;;;;;6.50;4.85;;;;;;;0.70;100.00;101013.52;1612486;89;21105;-80
2021/12/18 10:51:33;;;;;;;7.10;4.90;;;;;;;0.71;100.00;101004.09;1591884;89;21618;-80
2021/12/18 10:54:16;;;;;;;7.85;4.90;;;;;;;0.72;100.00;101013.47;1656622;86;21595;-80
2021/12/18 10:56:51;;;;;;;9.30;6.00;;;;;;;0.73;100.00;101012.59;1615968;88;21793;-80
2021/12/18 10:59:31;;;;;;;9.05;5.92;;;;;;;0.72;100.00;101014.75;1612509;89;21054;-82
2021/12/18 11:02:01;;;;;;;9.43;6.47;;;;;;;0.72;100.00;101006.60;1589245;89;22373;-81
2021/12/18 11:04:34;;;;;;;9.18;6.42;;;;;;;0.71;100.00;101015.63;1656528;86;21077;-81
2021/12/18 11:07:28;;;;;;;10.72;6.80;;;;;;;0.70;100.00;101014.80;1615339;88;21074;-80
2021/12/18 11:10:21;;;;;;;11.50;7.50;;;;;;;0.68;100.00;101005.02;1607583;89;21907;-81
2021/12/18 11:15:27;;;;;;;16.45;8.25;;;;;;;0.67;100.00;101022.56;1613719;88;21115;-81
2021/12/18 11:17:56;;;;;;;16.65;8.85;;;;;;;0.66;100.00;101013.64;1613365;88;21108;-86
2021/12/18 11:20:25;;;;;;;13.18;8.00;;;;;;;0.65;100.00;101024.77;1656380;86;21106;-81
2021/12/18 11:22:53;;;;;;;15.50;8.63;;;;;;;0.65;100.00;101020.92;1616008;88;21205;-81
2021/12/18 11:25:23;;;;;;;10.85;7.72;;;;;;;0.63;100.00;101015.39;1612242;88;21030;-80
2021/12/18 11:27:54;;;;;;;12.53;7.42;;;;;;;0.64;100.00;101023.95;1613593;88;21049;-81
2021/12/18 11:30:21;;;;;;;11.28;8.00;;;;;;;0.66;100.00;101027.28;1653960;86;26548;-80
2021/12/18 11:32:54;;;;;;;12.85;7.67;;;;;;;0.65;100.00;101024.31;1616061;88;21023;-80
2021/12/18 11:35:20;;;;;;;13.10;7.97;;;;;;;0.66;100.00;101027.28;1609301;89;21214;-80
2021/12/18 11:38:07;;;;;;;11.93;7.83;;;;;;;0.66;100.00;101017.48;1612258;89;22305;-81
2021/12/18 11:40:37;;;;;;;10.78;6.70;;;;;;;0.67;100.00;101025.58;1609400;89;21592;-80
2021/12/18 11:43:11;;;;;;;9.00;6.47;;;;;;;0.68;100.00;101022.14;1626958;86;21105;-80
2021/12/18 11:45:38;;;;;;;10.68;6.70;;;;;;;0.67;100.00;101025.58;1625565;88;21145;-81
2021/12/18 11:48:06;;;;;;;10.08;6.78;;;;;;;0.67;100.00;101023.84;1627461;88;21155;-80
2021/12/18 11:50:38;;;;;;;9.18;5.90;;;;;;;0.67;100.00;101022.56;1629560;88;21090;-80
2021/12/18 11:53:10;;;;;;;10.78;7.08;;;;;;;0.67;100.00;101022.56;1603779;88;21086;-82
2021/12/18 11:56:00;;;;;;;11.68;7.03;;;;;;;0.69;100.00;101027.63;1614868;87;21099;-82
2021/12/18 11:58:34;;;;;;;10.72;6.85;;;;;;;0.70;100.00;101028.03;1627037;87;21158;-82
2021/12/18 12:01:06;;;;;;;13.25;6.85;;;;;;;0.70;100.00;101026.33;1591661;88;21160;-80
2021/12/18 12:03:47;;;;;;;10.68;7.58;;;;;;;0.67;100.00;101040.95;1613120;87;21129;-80
2021/12/18 12:06:32;;;;;;;12.93;7.50;;;;;;;0.61;100.00;101033.81;1613542;88;21068;-80
2021/12/18 12:09:35;;;;;;;20.27;7.70;;;;;;;0.58;100.00;101036.90;1624809;86;21101;-79
2021/12/18 12:12:08;;;;;;;7.70;4.95;;;;;;;0.54;100.00;101028.45;1618187;86;21109;-80
2021/12/18 12:14:40;;;;;;;7.80;5.30;;;;;;;0.50;100.00;101028.15;1620917;86;21141;-83
2021/12/18 12:17:27;;;;;;;8.73;4.60;;;;;;;0.44;100.00;101034.27;1598165;88;21101;-79
2021/12/18 12:20:05;;;;;;;7.35;4.90;;;;;;;0.41;100.00;101044.59;1614801;87;21104;-79
2021/12/18 12:22:42;;;;;;;7.05;4.83;;;;;;;0.38;100.00;101030.59;1611043;87;21168;-79